Flight Track Log - Related Links

Times and Time Zones

All times are in EDT time to prevent confusion due to time zone crossing. See the SWA1618 flight status page for this flight to view local times or setup timezone preferences in your user account.

Time Position Orientation Groundspeed Altitude Reporting Facility
EDT Latitude Longitude Course Direction KTS MPH feet Rate Location/Type
Sat 08:35:09 PM 33.4333 -112.0333 248° West 170 196 2,300  Level Phoenix TRACON
Sat 08:35:45 PM 33.4167 -112.0833 248° West 204 235 3,400 2,000 Climbing Phoenix TRACON
Sat 08:36:39 PM 33.4000 -112.1500 253° West 278 320 5,300 2,471 Climbing Phoenix TRACON
Sat 08:37:10 PM 33.3622 -112.1586 191° South 281 323 6,900 3,457 Climbing Albuquerque Center
Sat 08:38:11 PM 33.3175 -112.0931 129° Southeast 281 323 10,600 3,098 Climbing Albuquerque Center
Sat 08:39:12 PM 33.3394 -111.9928 75° East 323 372 13,200 2,803 Climbing Albuquerque Center
Sat 08:40:13 PM 33.3692 -111.8833 72° East 348 400 16,300 2,902 Climbing Albuquerque Center
Sat 08:41:14 PM 33.4000 -111.7642 73° East 372 428 19,100 2,311 Climbing Albuquerque Center
Sat 08:42:15 PM 33.4336 -111.6383 72° East 396 456 21,000 1,820 Climbing Albuquerque Center
Sat 08:43:16 PM 33.4744 -111.4831 72° East 408 470 22,800 1,869 Climbing Albuquerque Center
Sat 08:44:17 PM 33.5053 -111.3492 75° East 423 487 24,800 1,967 Climbing Albuquerque Center
Sat 08:45:18 PM 33.5222 -111.2014 82° East 451 519 26,800 1,967 Climbing Albuquerque Center
Sat 08:46:19 PM 33.5389 -111.0486 83° East 463 533 28,800 1,820 Climbing Albuquerque Center
Sat 08:47:20 PM 33.5594 -110.8892 81° East 480 552 30,500 1,967 Climbing Albuquerque Center
Sat 08:48:21 PM 33.6058 -110.7411 69° East 477 549 32,800 1,721 Climbing Albuquerque Center
Sat 08:49:22 PM 33.6531 -110.5911 69° East 478 550 34,000 1,180 Climbing Albuquerque Center
Sat 08:50:23 PM 33.6883 -110.4281 75° East 502 578 35,200 1,230 Climbing Albuquerque Center
Sat 08:51:24 PM 33.7239 -110.2469 77° East 512 589 36,500 1,426 Climbing Albuquerque Center
Sat 08:52:25 PM 33.7589 -110.0775 76° East 520 598 38,100 1,240 Climbing Albuquerque Center
Sat 08:53:25 PM 33.7925 -109.9125 76° East 513 590 39,000 446 Climbing Albuquerque Center
Sat 08:54:26 PM 33.8256 -109.7519 76° East 501 577 39,000  Level Albuquerque Center
Sat 08:55:27 PM 33.8578 -109.5897 77° East 498 573 39,000  Level Albuquerque Center
Sat 08:56:28 PM 33.8897 -109.4286 77° East 497 572 39,000  Level Albuquerque Center
Sat 08:57:29 PM 33.9217 -109.2672 77° East 495 570 39,000  Level Albuquerque Center
Sat 08:58:30 PM 33.9525 -109.1067 77° East 494 568 39,000  Level Albuquerque Center
Sat 08:59:31 PM 33.9828 -108.9436 77° East 495 570 39,000  Level Albuquerque Center
Sat 09:00:32 PM 34.0033 -108.7450 83° East 495 570 39,000  Level Albuquerque Center
Sat 09:01:34 PM 34.0217 -108.5806 82° East 495 570 39,000  Level Albuquerque Center
Sat 09:02:35 PM 34.0350 -108.4378 84° East 495 570 39,000  Level Albuquerque Center
Sat 09:03:36 PM 34.0547 -108.2758 82° East 493 567 39,000  Level Albuquerque Center
Sat 09:04:37 PM 34.0719 -108.0767 84° East 495 570 39,000  Level Albuquerque Center
Sat 09:05:38 PM 34.0897 -107.9111 83° East 499 574 39,000  Level Albuquerque Center
Sat 09:06:39 PM 34.1061 -107.7469 83° East 497 572 39,000  Level Albuquerque Center
Sat 09:07:40 PM 34.1236 -107.5817 83° East 497 572 39,000  Level Albuquerque Center
Sat 09:08:41 PM 34.1394 -107.4156 83° East 500 575 39,000  Level Albuquerque Center
Sat 09:09:42 PM 34.1558 -107.2478 83° East 501 577 39,000  Level Albuquerque Center
Sat 09:10:43 PM 34.1717 -107.0811 83° East 504 580 39,000  Level Albuquerque Center
Sat 09:11:44 PM 34.1867 -106.9167 84° East 500 575 39,000  Level Albuquerque Center
Sat 09:12:45 PM 34.2022 -106.7514 83° East 498 573 39,000  Level Albuquerque Center
Sat 09:13:46 PM 34.2172 -106.5903 84° East 492 566 39,000  Level Albuquerque Center
Sat 09:14:48 PM 34.2350 -106.3956 84° East 490 564 39,000  Level Albuquerque Center
Sat 09:15:49 PM 34.2494 -106.2333 84° East 489 563 39,000  Level Albuquerque Center
Sat 09:16:50 PM 34.2650 -106.0708 83° East 485 558 39,000  Level Albuquerque Center
Sat 09:17:51 PM 34.2783 -105.9069 84° East 485 558 39,000  Level Albuquerque Center
Sat 09:18:52 PM 34.2931 -105.7461 84° East 481 554 39,000  Level Albuquerque Center
Sat 09:19:53 PM 34.3058 -105.5839 85° East 481 554 39,000  Level Albuquerque Center
Sat 09:20:54 PM 34.3194 -105.4211 84° East 483 556 39,000  Level Albuquerque Center
Sat 09:21:55 PM 34.3319 -105.2589 85° East 482 555 39,000  Level Albuquerque Center
Sat 09:22:56 PM 34.3442 -105.0972 85° East 481 554 39,000  Level Albuquerque Center
Sat 09:23:57 PM 34.3575 -104.9372 84° East 478 550 39,000  Level Albuquerque Center
Sat 09:24:58 PM 34.3694 -104.7761 85° East 477 549 39,000  Level Albuquerque Center
Sat 09:25:59 PM 34.3822 -104.6136 85° East 480 552 39,000  Level Albuquerque Center
Sat 09:27:01 PM 34.3981 -104.4556 83° East 475 547 39,000  Level Albuquerque Center
Sat 09:28:02 PM 34.4189 -104.2708 82° East 474 545 39,000  Level Albuquerque Center
Sat 09:29:03 PM 34.4344 -104.1125 83° East 472 543 39,000  Level Albuquerque Center
Sat 09:30:04 PM 34.4492 -103.9558 83° East 469 540 39,000  Level Albuquerque Center
Sat 09:31:05 PM 34.4650 -103.8017 83° East 462 532 39,000  Level Albuquerque Center
Sat 09:32:06 PM 34.4800 -103.6450 83° East 464 534 39,000  Level Albuquerque Center
Sat 09:33:07 PM 34.4947 -103.4892 83° East 464 534 39,000  Level Albuquerque Center
Sat 09:34:08 PM 34.5092 -103.3344 83° East 462 532 39,000  Level Albuquerque Center
Sat 09:35:09 PM 34.5242 -103.1767 83° East 466 536 39,000  Level Albuquerque Center
Sat 09:36:10 PM 34.5389 -103.0189 83° East 468 539 39,000  Level Albuquerque Center
Sat 09:37:11 PM 34.5517 -102.8619 84° East 466 536 39,000  Level Albuquerque Center
Sat 09:38:12 PM 34.5672 -102.7031 83° East 471 542 39,000  Level Albuquerque Center
Sat 09:39:13 PM 34.5808 -102.5439 84° East 469 540 39,000  Level Albuquerque Center
Sat 09:40:14 PM 34.5933 -102.3872 84° East 469 540 39,000  Level Albuquerque Center
Sat 09:41:15 PM 34.6075 -102.2336 84° East 464 534 39,000  Level Albuquerque Center
Sat 09:42:16 PM 34.6186 -102.0800 85° East 461 531 39,000  Level Albuquerque Center
Sat 09:43:17 PM 34.6328 -101.9258 84° East 462 532 39,000  Level Albuquerque Center
Sat 09:44:18 PM 34.6464 -101.7422 85° East 460 529 39,000  Level Albuquerque Center
Sat 09:45:20 PM 34.6600 -101.5872 84° East 463 533 39,000  Level Albuquerque Center
Sat 09:46:20 PM 34.6719 -101.4336 85° East 463 533 39,000  Level Albuquerque Center
Sat 09:47:20 PM 34.6836 -101.2792 85° East 463 533 39,000  Level Albuquerque Center
Sat 09:48:21 PM 34.6953 -101.1233 85° East 464 534 39,000  Level Albuquerque Center
Sat 09:49:22 PM 34.7064 -100.9692 85° East 463 533 39,000  Level Albuquerque Center
Sat 09:50:23 PM 34.7178 -100.8128 85° East 466 536 39,000  Level Albuquerque Center
Sat 09:51:24 PM 34.7286 -100.6581 85° East 463 533 39,000  Level Albuquerque Center
Sat 09:52:25 PM 34.7406 -100.5019 85° East 465 535 39,000  Level Albuquerque Center
Sat 09:53:26 PM 34.7517 -100.3308 85° East 463 533 39,000  Level Albuquerque Center
Sat 09:54:27 PM 34.7625 -100.1742 85° East 465 535 39,000  Level Albuquerque Center
Sat 09:55:28 PM 34.7725 -100.0189 85° East 463 533 39,000  Level Albuquerque Center
Sat 09:56:28 PM 34.7825 -99.8617 86° East 465 535 39,000  Level Albuquerque Center
Sat 09:57:36 PM 34.7953 -99.6731 85° East 466 536 39,000  Level Fort Worth Center
Sat 09:58:37 PM 34.8042 -99.5158 86° East 466 536 39,000  Level Fort Worth Center
Sat 09:59:37 PM 34.8150 -99.3625 85° East 458 527 39,000  Level Fort Worth Center
Sat 10:00:38 PM 34.8228 -99.2033 87° East 468 539 39,000  Level Fort Worth Center
Sat 10:01:38 PM 34.8328 -99.0481 85° East 464 534 39,000  Level Fort Worth Center
Sat 10:02:39 PM 34.8419 -98.8911 86° East 465 535 39,000  Level Fort Worth Center
Sat 10:03:39 PM 34.8503 -98.7342 86° East 466 536 39,000  Level Fort Worth Center
Sat 10:04:40 PM 34.8597 -98.5786 86° East 462 532 39,000  Level Fort Worth Center
Sat 10:05:40 PM 34.8672 -98.4106 87° East 461 531 39,000  Level Fort Worth Center
Sat 10:06:41 PM 34.8742 -98.2567 87° East 458 527 39,000  Level Fort Worth Center
Sat 10:07:41 PM 34.8825 -98.1033 86° East 456 525 39,000  Level Fort Worth Center
Sat 10:08:42 PM 34.8903 -97.9503 86° East 455 524 39,000  Level Fort Worth Center
Sat 10:09:42 PM 34.8975 -97.7942 87° East 463 533 39,000  Level Fort Worth Center
Sat 10:10:43 PM 34.9050 -97.6394 87° East 463 533 39,000  Level Fort Worth Center
Sat 10:11:43 PM 34.9117 -97.4839 87° East 465 535 39,000  Level Fort Worth Center
Sat 10:12:44 PM 34.9183 -97.3303 87° East 461 531 39,000  Level Fort Worth Center
Sat 10:13:44 PM 34.9250 -97.1753 87° East 463 533 39,000  Level Fort Worth Center
Sat 10:14:45 PM 34.9311 -97.0189 87° East 464 534 39,000  Level Fort Worth Center
Sat 10:15:45 PM 34.9372 -96.8628 87° East 467 537 39,000  Level Fort Worth Center
Sat 10:16:46 PM 34.9433 -96.7072 87° East 464 534 39,000  Level Fort Worth Center
Sat 10:17:46 PM 34.9508 -96.5533 87° East 459 528 39,000  Level Fort Worth Center
Sat 10:18:47 PM 34.9558 -96.3972 88° East 465 535 39,000  Level Fort Worth Center
Sat 10:19:47 PM 34.9631 -96.2086 87° East 469 540 39,000  Level Fort Worth Center
Sat 10:20:48 PM 34.9678 -96.0503 88° East 470 541 39,000  Level Fort Worth Center
Sat 10:21:48 PM 34.9731 -95.8908 88° East 470 541 39,000  Level Fort Worth Center
Sat 10:22:49 PM 34.9775 -95.7458 88° East 470 541 39,000  Level Fort Worth Center
Sat 10:23:49 PM 34.9811 -95.5850 88° East 474 545 39,000  Level Fort Worth Center
Sat 10:24:50 PM 34.9867 -95.4236 88° East 476 548 39,000  Level Fort Worth Center
Sat 10:25:51 PM 34.9906 -95.2619 88° East 478 550 39,000  Level Fort Worth Center
Sat 10:26:51 PM 34.9942 -95.0989 88° East 481 554 39,000  Level Fort Worth Center
Sat 10:27:52 PM 34.9986 -94.9342 88° East 485 558 39,000  Level Fort Worth Center
Sat 10:28:52 PM 35.0172 -94.7719 82° East 483 556 39,000  Level Fort Worth Center
Sat 10:29:53 PM 35.0394 -94.6142 80° East 475 547 39,000  Level Fort Worth Center
Sat 10:30:53 PM 35.0617 -94.4542 80° East 478 550 39,000  Level Fort Worth Center
Sat 10:31:54 PM 35.0839 -94.2981 80° East 471 542 39,000  Level Fort Worth Center
Sat 10:32:55 PM 35.1072 -94.1189 81° East 470 541 39,000  Level Fort Worth Center
Sat 10:33:55 PM 35.1297 -93.9625 80° East 471 542 39,000  Level Fort Worth Center
Sat 10:34:56 PM 35.1494 -93.8056 81° East 470 541 39,000  Level Fort Worth Center
Sat 10:35:56 PM 35.1703 -93.6486 81° East 469 540 39,000  Level Fort Worth Center
Sat 10:36:58 PM 35.1892 -93.4947 81° East 464 534 39,000  Level Memphis Center
Sat 10:37:58 PM 35.2117 -93.3433 80° East 464 534 39,000  Level Memphis Center
Sat 10:38:58 PM 35.2319 -93.1889 81° East 459 528 39,000  Level Memphis Center
Sat 10:39:58 PM 35.2519 -93.0344 81° East 459 528 39,000  Level Memphis Center
Sat 10:40:58 PM 35.2697 -92.8800 82° East 459 528 39,000  Level Memphis Center
Sat 10:41:58 PM 35.2894 -92.7253 81° East 459 528 39,000  Level Memphis Center
Sat 10:42:58 PM 35.3072 -92.5503 83° East 472 543 39,000  Level Memphis Center
Sat 10:43:58 PM 35.3244 -92.3956 82° East 460 529 39,000  Level Memphis Center
Sat 10:44:58 PM 35.3436 -92.2406 81° East 460 529 39,000  Level Memphis Center
Sat 10:45:58 PM 35.3625 -92.0883 81° East 460 529 39,000  Level Memphis Center
Sat 10:46:58 PM 35.3833 -91.9333 81° East 460 529 39,000  Level Memphis Center
Sat 10:47:58 PM 35.4000 -91.7758 83° East 466 536 39,000  Level Memphis Center
Sat 10:48:58 PM 35.4161 -91.6181 83° East 466 536 39,000  Level Memphis Center
Sat 10:49:58 PM 35.4364 -91.4656 81° East 466 536 39,000  Level Memphis Center
Sat 10:50:58 PM 35.4522 -91.3256 82° East 466 536 39,000  Level Memphis Center
Sat 10:51:58 PM 35.4700 -91.1678 82° East 466 536 39,000  Level Memphis Center
Sat 10:52:59 PM 35.4875 -90.9944 83° East 466 536 39,000  Level Memphis Center
Sat 10:53:58 PM 35.5050 -90.8392 82° East 459 528 39,000  Level Memphis Center
Sat 10:54:58 PM 35.5222 -90.6811 82° East 468 539 39,000  Level Memphis Center
Sat 10:55:58 PM 35.5392 -90.5203 83° East 468 539 39,000  Level Memphis Center
Sat 10:56:58 PM 35.5558 -90.3622 83° East 463 533 39,000  Level Memphis Center
Sat 10:57:58 PM 35.5725 -90.2014 83° East 463 533 39,000  Level Memphis Center
Sat 10:58:58 PM 35.5869 -90.0431 84° East 463 533 39,000  Level Memphis Center
Sat 10:59:58 PM 35.6031 -89.8975 82° East 469 540 39,000 -400 Level Memphis Center
Sat 11:00:58 PM 35.6169 -89.7417 84° East 463 533 38,200 -900 Descending Memphis Center
Sat 11:01:58 PM 35.6328 -89.5831 83° East 463 533 37,200 -942 Descending Memphis Center
Sat 11:02:59 PM 35.6483 -89.4244 83° East 463 533 36,300 -1,050 Descending Memphis Center
Sat 11:03:58 PM 35.6617 -89.2608 84° East 463 533 35,100 -1,866 Descending Memphis Center
Sat 11:04:58 PM 35.6786 -89.0817 83° East 468 539 32,600 -1,884 Descending Memphis Center
Sat 11:05:59 PM 35.6875 -88.9308 86° East 481 554 31,300 -1,400 Descending Memphis Center
Sat 11:06:58 PM 35.7042 -88.7644 83° East 487 560 29,800 -1,361 Descending Memphis Center
Sat 11:07:58 PM 35.7186 -88.6003 84° East 487 560 28,600 -1,190 Descending Memphis Center
Sat 11:08:59 PM 35.7331 -88.4517 83° East 459 528 27,400 -1,091 Descending Memphis Center
Sat 11:09:59 PM 35.7456 -88.3083 84° East 438 504 26,400 -1,008 Descending Memphis Center
Sat 11:10:58 PM 35.7575 -88.1622 84° East 424 488 25,400 -1,210 Descending Memphis Center
Sat 11:11:58 PM 35.7697 -88.0286 84° East 405 466 24,000 -1,500 Descending Memphis Center
Sat 11:12:58 PM 35.7817 -87.8953 84° East 405 466 22,400 -1,950 Descending Memphis Center
Sat 11:13:58 PM 35.7933 -87.7517 84° East 413 475 20,100 -2,150 Descending Memphis Center
Sat 11:14:58 PM 35.8031 -87.6158 85° East 407 468 18,100 -1,835 Descending Memphis Center
Sat 11:15:59 PM 35.8231 -87.4897 79° East 382 440 16,400 -1,850 Descending Memphis Center
Sat 11:16:58 PM 35.8700 -87.3650 65° Northeast 370 426 14,400 -1,916 Descending Memphis Center
Sat 11:17:58 PM 35.9092 -87.2508 67° East 358 412 12,600 -2,000 Descending Memphis Center
Sat 11:18:58 PM 35.9519 -87.1389 65° Northeast 358 412 10,400 -1,400 Descending Memphis Center
Sat 11:19:58 PM 35.9953 -87.0372 62° Northeast 351 404 9,800 -1,100 Descending Memphis Center
Sat 11:20:58 PM 36.0322 -86.9408 65° Northeast 323 372 8,200 -1,636 Descending Memphis Center
Sat 11:21:59 PM 36.0714 -86.8467 63° Northeast 309 356 6,500 -1,400 Descending Memphis Center
Sat 11:22:58 PM 36.1322 -86.7850 39° Northeast 281 323 5,400 -1,261 Descending Memphis Center
Sat 11:23:58 PM 36.1978 -86.7536 21° North 256 295 4,000 -1,300 Descending Memphis Center
Sat 11:24:58 PM 36.2167 -86.6783 73° East 220 253 2,800 -950 Descending Memphis Center
Sat 11:25:58 PM 36.1861 -86.6386 134° Southeast 147 169 2,100 -950 Descending Memphis Center
Sat 11:26:58 PM 36.1492 -86.6531 198° South 76 87 900 -650 Descending Memphis Center
Sat 11:27:58 PM 36.1322 -86.6436 156° South 81 93 800 4,512 Descending Memphis Center
Sat 11:28:59 PM 36.1111 -86.6394 171° South 81 93 10,000 4,600 Climbing Memphis Center
Sat 11:29:58 PM 36.0900 -86.6328 166° South 81 93 10,000  Level Memphis Center
Sat 11:31:00 PM 36.1167 -86.6667 302° West  Level FlightAware Approximate
Sat 11:38:00 PM 36.1245 -86.6782 302° West  Level Estimated
Sat 11:39:00 PM 36.1245 -86.6782 302° West  Level Estimated
Sat 11:40:00 PM 36.1245 -86.6782 302° West  Level Estimated
Sat 11:41:00 PM 36.1245 -86.6782 302° West  Level Estimated
Sat 11:42:00 PM 36.1245 -86.6782 302° West  Level Estimated
Sat 11:43:00 PM 36.1245 -86.6782 302° West  Level Estimated
Sat 11:44:00 PM 36.1245 -86.6782 302° West  Level Estimated
Sat 11:45:00 PM 36.1245 -86.6782 302° West  Level Estimated
Sat 11:46:00 PM 36.1245 -86.6782 302° West  Level Estimated

Login

Don't have an account? Register now (free) for customized features, flight alerts, and more!